Time;durP1;ratioP1;P1;durP2;ratioP2;P2;SDS_P1;SDS_P2;PMS_P1;PMS_P2;Temp;Humidity;BMP_temperature;BMP_pressure;BME280_temperature;BME280_humidity;BME280_pressure;Samples;Min_cycle;Max_cycle;Signal;HPM_P1;HPM_P2
2023/06/14 00:01:13;;;;;;;13.43;4.97;;;16.60;49.80;;;;;;5048633;28;20633;-73
2023/06/14 00:03:58;;;;;;;6.70;4.60;;;16.70;50.10;;;;;;5050475;28;21235;-73
2023/06/14 00:06:45;;;;;;;8.20;5.03;;;16.80;51.40;;;;;;5050531;28;20837;-73
2023/06/14 00:09:31;;;;;;;10.93;4.57;;;16.90;51.00;;;;;;5050020;28;20426;-73
2023/06/14 00:12:16;;;;;;;6.50;4.70;;;16.90;51.00;;;;;;5050415;28;21079;-73
2023/06/14 00:15:04;;;;;;;6.27;4.93;;;16.90;50.00;;;;;;5051415;28;20436;-73
2023/06/14 00:17:50;;;;;;;7.70;4.93;;;16.90;50.10;;;;;;5055943;28;20929;-73
2023/06/14 00:20:36;;;;;;;7.67;5.27;;;16.90;50.70;;;;;;5051244;28;20530;-73
2023/06/14 00:23:22;;;;;;;6.70;5.50;;;16.80;48.00;;;;;;5053038;28;20471;-73
2023/06/14 00:26:07;;;;;;;6.33;4.80;;;16.80;49.30;;;;;;5049210;28;20482;-73
2023/06/14 00:28:53;;;;;;;8.40;5.10;;;16.80;49.90;;;;;;5052771;28;20451;-73
2023/06/14 00:31:40;;;;;;;6.00;4.40;;;16.80;49.90;;;;;;5049800;28;20448;-73
2023/06/14 00:34:25;;;;;;;10.90;5.00;;;16.70;49.80;;;;;;5051028;28;20488;-73
2023/06/14 00:37:11;;;;;;;7.17;4.50;;;16.60;49.80;;;;;;5048398;28;20792;-73
2023/06/14 00:39:56;;;;;;;6.73;5.17;;;16.50;49.60;;;;;;5051946;28;20443;-73
2023/06/14 00:42:42;;;;;;;8.10;4.43;;;16.60;50.10;;;;;;5048613;28;20454;-73
2023/06/14 00:45:27;;;;;;;6.50;5.63;;;16.50;48.90;;;;;;5048438;28;20528;-73
2023/06/14 00:48:15;;;;;;;7.23;5.57;;;16.60;50.40;;;;;;5048388;28;20983;-73
2023/06/14 00:51:03;;;;;;;7.07;5.03;;;16.70;49.80;;;;;;5048046;28;20517;-73
2023/06/14 00:53:48;;;;;;;5.40;4.67;;;16.70;48.80;;;;;;5051356;28;20545;-73
2023/06/14 00:56:36;;;;;;;9.57;4.97;;;16.70;49.80;;;;;;5049152;28;20772;-73
2023/06/14 00:59:22;;;;;;;11.63;5.27;;;16.70;50.50;;;;;;5048883;28;20435;-73
2023/06/14 01:02:07;;;;;;;6.80;4.70;;;16.70;51.90;;;;;;5048778;28;20459;-73
2023/06/14 01:04:55;;;;;;;6.70;5.27;;;16.60;52.00;;;;;;5049358;28;20557;-73
2023/06/14 01:07:52;;;;;;;8.53;4.83;;;16.50;50.10;;;;;;5050548;28;20466;-72
2023/06/14 01:10:49;;;;;;;7.17;5.50;;;16.50;51.00;;;;;;5052346;28;20439;-73
2023/06/14 01:13:38;;;;;;;6.10;5.20;;;16.50;51.50;;;;;;5053203;28;20444;-73
2023/06/14 01:16:24;;;;;;;6.97;5.37;;;16.50;53.00;;;;;;5055150;28;20449;-73
2023/06/14 01:19:13;;;;;;;6.87;4.67;;;16.40;51.60;;;;;;5057077;28;20478;-73
2023/06/14 01:22:02;;;;;;;6.23;5.47;;;16.30;50.60;;;;;;5061745;28;21013;-73
2023/06/14 01:24:49;;;;;;;5.87;4.90;;;16.40;52.90;;;;;;5066014;28;20466;-73
2023/06/14 01:27:35;;;;;;;8.87;5.37;;;16.30;54.80;;;;;;5055763;28;20464;-73
2023/06/14 01:30:25;;;;;;;11.10;5.47;;;16.20;53.30;;;;;;5056354;28;20788;-73
2023/06/14 01:33:11;;;;;;;7.60;5.80;;;16.20;54.60;;;;;;5055150;28;20678;-73
2023/06/14 01:35:57;;;;;;;8.43;5.67;;;16.20;55.30;;;;;;5055375;28;20446;-73
2023/06/14 01:38:45;;;;;;;6.67;5.30;;;16.10;54.50;;;;;;5057168;28;20417;-73
2023/06/14 01:41:32;;;;;;;7.97;5.20;;;16.00;55.00;;;;;;5054875;28;20493;-73
2023/06/14 01:44:19;;;;;;;5.93;5.03;;;16.00;56.50;;;;;;5055823;28;20458;-73
2023/06/14 01:47:06;;;;;;;8.63;5.60;;;16.00;56.50;;;;;;5054639;28;20705;-72
2023/06/14 01:49:51;;;;;;;7.03;5.70;;;15.90;55.90;;;;;;5054477;28;20562;-72
2023/06/14 01:52:38;;;;;;;8.37;5.40;;;15.90;56.60;;;;;;5053045;28;23262;-73
2023/06/14 01:55:24;;;;;;;10.77;6.00;;;15.80;58.20;;;;;;5054730;28;20451;-73
2023/06/14 01:58:11;;;;;;;7.60;5.00;;;15.90;57.10;;;;;;5053415;28;20822;-73
2023/06/14 02:00:58;;;;;;;10.53;6.00;;;15.90;55.60;;;;;;5050924;28;20447;-72
2023/06/14 02:03:44;;;;;;;10.03;5.87;;;15.80;57.00;;;;;;5052025;28;20602;-73
2023/06/14 02:06:30;;;;;;;13.97;6.17;;;15.80;55.50;;;;;;5053207;28;20664;-73
2023/06/14 02:09:15;;;;;;;11.00;5.77;;;15.80;55.50;;;;;;5051088;28;20474;-73
2023/06/14 02:12:01;;;;;;;6.30;5.70;;;15.80;54.80;;;;;;5050791;28;21572;-73
2023/06/14 02:14:48;;;;;;;5.97;5.07;;;15.90;56.20;;;;;;5061692;28;20445;-73
2023/06/14 02:17:34;;;;;;;7.43;5.20;;;15.90;56.50;;;;;;5053903;28;20532;-73
2023/06/14 02:20:20;;;;;;;9.10;5.13;;;15.90;55.10;;;;;;5054238;28;20951;-73
2023/06/14 02:23:07;;;;;;;7.47;5.60;;;16.00;55.40;;;;;;5053091;28;20470;-73
2023/06/14 02:25:53;;;;;;;16.53;6.20;;;16.00;53.80;;;;;;5053121;28;20522;-73
2023/06/14 02:28:38;;;;;;;13.07;5.70;;;15.80;53.60;;;;;;5053879;28;20437;-73
2023/06/14 02:31:26;;;;;;;13.93;5.97;;;15.80;53.40;;;;;;5051530;28;20455;-73
2023/06/14 02:34:12;;;;;;;13.90;6.17;;;15.80;54.90;;;;;;5053898;28;20475;-73
2023/06/14 02:36:57;;;;;;;10.77;6.03;;;15.80;54.40;;;;;;5052809;28;20498;-73
2023/06/14 02:39:43;;;;;;;20.00;6.20;;;15.70;55.20;;;;;;5056240;28;20447;-73
2023/06/14 02:42:28;;;;;;;9.40;6.03;;;15.50;54.40;;;;;;5053964;28;20447;-73
2023/06/14 02:45:14;;;;;;;22.77;5.70;;;15.50;56.30;;;;;;5055258;28;20481;-73
2023/06/14 02:48:01;;;;;;;8.70;4.87;;;15.40;57.80;;;;;;5054274;28;20489;-72
2023/06/14 02:50:47;;;;;;;9.43;5.80;;;15.50;55.90;;;;;;5053286;28;20566;-73
2023/06/14 02:53:32;;;;;;;8.23;5.40;;;15.50;56.70;;;;;;5055896;28;20491;-72
2023/06/14 02:56:19;;;;;;;9.20;5.67;;;15.50;56.10;;;;;;5052804;28;20435;-73
2023/06/14 02:59:04;;;;;;;11.63;5.87;;;15.50;57.40;;;;;;5057755;28;20446;-73
2023/06/14 03:01:50;;;;;;;9.80;6.00;;;15.40;56.90;;;;;;5052752;28;20458;-73
2023/06/14 03:04:38;;;;;;;15.47;5.90;;;15.40;56.80;;;;;;5054194;28;20494;-73
2023/06/14 03:07:25;;;;;;;9.63;5.10;;;15.30;57.30;;;;;;5053875;28;20520;-72
2023/06/14 03:10:12;;;;;;;8.90;5.37;;;15.40;56.30;;;;;;5052441;28;20613;-73
2023/06/14 03:12:58;;;;;;;12.70;5.97;;;15.20;57.30;;;;;;5051131;28;20523;-73
2023/06/14 03:15:44;;;;;;;16.63;5.80;;;15.20;58.90;;;;;;5051249;28;20999;-73
2023/06/14 03:18:30;;;;;;;11.10;5.70;;;15.30;57.50;;;;;;5053701;28;20488;-73
2023/06/14 03:21:17;;;;;;;22.30;7.00;;;15.40;58.00;;;;;;5050715;28;20455;-73
2023/06/14 03:24:03;;;;;;;21.33;6.03;;;15.40;57.40;;;;;;5053974;28;20467;-72
2023/06/14 03:26:48;;;;;;;7.73;5.00;;;15.50;56.80;;;;;;5051421;28;20517;-73
2023/06/14 03:29:34;;;;;;;7.93;5.50;;;15.40;55.60;;;;;;5051821;28;20446;-73
2023/06/14 03:32:19;;;;;;;9.60;6.17;;;15.60;56.20;;;;;;5051987;28;20444;-73
2023/06/14 03:35:06;;;;;;;13.17;5.77;;;15.60;53.20;;;;;;5051722;28;20450;-73
2023/06/14 03:37:53;;;;;;;6.10;5.00;;;15.80;52.60;;;;;;5050060;28;20472;-72
2023/06/14 03:40:38;;;;;;;7.70;5.70;;;16.00;49.00;;;;;;5059342;28;20441;-73
2023/06/14 03:43:24;;;;;;;8.13;5.37;;;16.20;46.60;;;;;;5052917;28;20598;-73
2023/06/14 03:46:10;;;;;;;11.60;4.80;;;16.50;44.20;;;;;;5051386;28;22696;-72
2023/06/14 03:48:55;;;;;;;5.80;4.80;;;16.70;43.00;;;;;;5052064;28;20576;-73
2023/06/14 03:51:41;;;;;;;10.27;5.67;;;16.80;41.80;;;;;;5051192;28;20456;-73
2023/06/14 03:54:28;;;;;;;13.93;5.20;;;17.00;40.40;;;;;;5049828;28;20445;-73
2023/06/14 03:57:14;;;;;;;6.13;5.03;;;17.10;40.90;;;;;;5050162;28;20478;-73
2023/06/14 03:59:59;;;;;;;8.03;5.43;;;17.20;40.50;;;;;;5052832;28;20447;-73
2023/06/14 04:02:45;;;;;;;7.27;5.73;;;17.30;40.10;;;;;;5050063;28;20483;-73
2023/06/14 04:05:32;;;;;;;8.20;5.30;;;17.30;40.30;;;;;;5051307;28;20447;-73
2023/06/14 04:08:19;;;;;;;6.50;5.30;;;17.40;39.40;;;;;;5050564;28;20455;-73
2023/06/14 04:11:06;;;;;;;6.90;4.80;;;17.40;39.00;;;;;;5058210;28;20463;-73
2023/06/14 04:13:53;;;;;;;6.27;4.70;;;17.40;40.50;;;;;;5050695;28;20505;-73
2023/06/14 04:16:39;;;;;;;6.10;5.10;;;17.40;40.20;;;;;;5055245;28;20447;-72
2023/06/14 04:19:24;;;;;;;8.10;4.87;;;17.40;40.10;;;;;;5052742;28;20590;-73
2023/06/14 04:22:10;;;;;;;7.00;5.50;;;17.30;39.70;;;;;;5049845;28;20452;-73
2023/06/14 04:24:56;;;;;;;8.47;5.80;;;17.30;40.00;;;;;;5051729;28;20463;-73
2023/06/14 04:27:43;;;;;;;13.97;5.87;;;17.40;40.10;;;;;;5049703;28;20601;-73
2023/06/14 04:30:31;;;;;;;9.10;5.67;;;17.50;40.60;;;;;;5049690;28;21007;-73
2023/06/14 04:33:17;;;;;;;7.20;5.53;;;17.50;40.10;;;;;;5049246;28;20614;-73
2023/06/14 04:36:02;;;;;;;7.60;5.63;;;17.60;40.00;;;;;;5048639;28;20443;-73
2023/06/14 04:38:48;;;;;;;8.80;5.13;;;17.60;39.20;;;;;;5050401;28;20425;-73
2023/06/14 04:41:34;;;;;;;7.63;5.40;;;17.80;38.60;;;;;;5049860;28;20447;-73
2023/06/14 04:44:24;;;;;;;7.00;5.60;;;17.80;37.60;;;;;;5048882;28;20552;-73
2023/06/14 04:47:09;;;;;;;14.60;5.80;;;17.90;37.60;;;;;;5052711;28;20524;-73
2023/06/14 04:49:55;;;;;;;7.80;5.40;;;18.00;37.50;;;;;;5054609;28;20652;-73
2023/06/14 04:52:40;;;;;;;11.30;5.70;;;18.00;37.40;;;;;;5054369;28;20439;-73
2023/06/14 04:55:26;;;;;;;9.03;5.80;;;18.10;37.50;;;;;;5056428;28;20493;-73
2023/06/14 04:58:13;;;;;;;9.80;5.40;;;18.30;36.20;;;;;;5051314;28;20443;-76
2023/06/14 05:00:59;;;;;;;7.43;5.47;;;18.30;37.10;;;;;;5052473;28;20457;-73
2023/06/14 05:03:49;;;;;;;7.93;6.20;;;18.40;37.90;;;;;;5056266;28;20517;-73
2023/06/14 05:06:34;;;;;;;9.90;4.90;;;18.30;37.70;;;;;;5054415;28;21015;-72
2023/06/14 05:09:19;;;;;;;10.10;6.03;;;18.40;36.70;;;;;;5052997;28;20514;-73
2023/06/14 05:12:07;;;;;;;7.40;5.50;;;18.50;36.70;;;;;;5054025;28;20443;-72
2023/06/14 05:14:53;;;;;;;11.23;5.67;;;18.50;36.90;;;;;;5052911;28;20474;-73
2023/06/14 05:17:40;;;;;;;7.23;5.50;;;18.50;36.10;;;;;;5056794;28;20597;-73
2023/06/14 05:20:26;;;;;;;9.73;6.13;;;18.60;36.60;;;;;;5053719;28;20463;-73
2023/06/14 05:23:14;;;;;;;7.20;4.87;;;18.70;36.20;;;;;;5054918;28;20449;-73
2023/06/14 05:26:02;;;;;;;10.50;5.93;;;18.70;37.00;;;;;;5053428;28;20471;-73
2023/06/14 05:28:47;;;;;;;8.40;5.73;;;18.80;36.00;;;;;;5054661;28;20443;-72
2023/06/14 05:31:33;;;;;;;7.67;5.27;;;18.90;35.70;;;;;;5054310;28;20505;-73
2023/06/14 05:34:20;;;;;;;7.97;5.60;;;19.00;34.70;;;;;;5054562;28;21505;-73
2023/06/14 05:37:06;;;;;;;6.77;5.80;;;19.00;35.30;;;;;;5052553;28;20518;-73
2023/06/14 05:39:51;;;;;;;9.60;5.57;;;19.00;35.30;;;;;;5054221;28;20450;-73
2023/06/14 05:42:37;;;;;;;7.77;5.20;;;19.00;35.30;;;;;;5052005;28;20447;-73
2023/06/14 05:45:22;;;;;;;8.37;5.10;;;19.10;35.50;;;;;;5055371;28;20540;-73
2023/06/14 05:48:08;;;;;;;7.70;5.63;;;19.10;34.90;;;;;;5054694;28;21000;-73
2023/06/14 05:50:55;;;;;;;8.77;5.30;;;19.20;34.20;;;;;;5052566;28;20443;-73
2023/06/14 05:53:40;;;;;;;5.97;4.93;;;19.20;34.00;;;;;;5052797;28;20482;-73
2023/06/14 05:56:26;;;;;;;5.83;4.67;;;19.20;33.50;;;;;;5051481;28;20451;-73
2023/06/14 05:59:11;;;;;;;8.23;5.93;;;19.30;33.70;;;;;;5054844;28;20800;-73
2023/06/14 06:01:57;;;;;;;6.00;5.40;;;19.30;33.30;;;;;;5052773;28;20463;-73
2023/06/14 06:04:42;;;;;;;10.73;5.10;;;19.40;33.70;;;;;;5055422;28;20610;-72
2023/06/14 06:07:29;;;;;;;6.33;4.80;;;19.50;33.30;;;;;;5053133;28;21004;-73
2023/06/14 06:10:15;;;;;;;11.63;5.33;;;19.50;33.00;;;;;;5053147;28;20502;-73
2023/06/14 06:13:01;;;;;;;10.30;5.17;;;19.60;34.20;;;;;;5052643;28;20439;-73
2023/06/14 06:15:46;;;;;;;10.10;5.90;;;19.60;33.20;;;;;;5052971;28;21313;-74
2023/06/14 06:18:31;;;;;;;7.80;5.17;;;19.80;33.40;;;;;;5055496;28;20435;-74
2023/06/14 06:21:17;;;;;;;5.77;4.90;;;19.90;32.80;;;;;;5052142;28;20452;-74
2023/06/14 06:24:06;;;;;;;10.90;5.13;;;19.90;32.40;;;;;;5055560;28;20472;-74
2023/06/14 06:26:51;;;;;;;8.17;5.23;;;19.90;31.10;;;;;;5052227;28;20603;-74
2023/06/14 06:29:36;;;;;;;15.13;5.17;;;20.00;32.20;;;;;;5053141;28;20446;-74
2023/06/14 06:32:22;;;;;;;8.07;5.10;;;20.10;31.30;;;;;;5053012;28;20845;-74
2023/06/14 06:35:10;;;;;;;14.50;5.20;;;20.20;30.60;;;;;;5053420;28;20496;-74
2023/06/14 06:37:56;;;;;;;9.30;5.40;;;20.20;30.80;;;;;;5051683;28;20449;-74
2023/06/14 06:40:42;;;;;;;10.47;5.90;;;20.30;29.50;;;;;;5052624;28;20427;-74
2023/06/14 06:43:28;;;;;;;11.63;5.67;;;20.40;29.80;;;;;;5053030;28;20475;-74
2023/06/14 06:46:13;;;;;;;11.50;5.30;;;20.40;29.60;;;;;;5054019;28;20587;-73
2023/06/14 06:48:59;;;;;;;8.53;5.30;;;20.50;28.40;;;;;;5053538;28;20478;-74
2023/06/14 06:52:00;;;;;;;9.03;5.20;;;20.60;29.00;;;;;;5050640;28;20435;-74
2023/06/14 06:54:46;;;;;;;5.73;4.77;;;20.60;28.20;;;;;;5053036;28;21623;-74
2023/06/14 06:57:33;;;;;;;8.23;4.43;;;20.60;28.60;;;;;;5054089;28;20501;-74
2023/06/14 07:00:19;;;;;;;6.37;4.43;;;20.70;28.10;;;;;;5051640;28;20466;-74
2023/06/14 07:03:05;;;;;;;9.53;4.90;;;20.70;27.90;;;;;;5053232;28;20536;-74
2023/06/14 07:05:50;;;;;;;7.97;4.57;;;20.70;27.00;;;;;;5051903;28;20612;-74
2023/06/14 07:08:38;;;;;;;6.20;4.27;;;20.80;27.60;;;;;;5055318;28;20482;-74
2023/06/14 07:11:23;;;;;;;12.37;5.40;;;20.80;27.30;;;;;;5052379;28;20988;-74
2023/06/14 07:14:10;;;;;;;7.73;4.70;;;20.80;28.10;;;;;;5052107;28;20639;-74
2023/06/14 07:16:56;;;;;;;6.13;4.43;;;20.90;27.60;;;;;;5061442;28;20447;-74
2023/06/14 07:19:42;;;;;;;6.43;4.90;;;21.00;27.80;;;;;;5052390;28;20447;-74
2023/06/14 07:22:27;;;;;;;9.10;4.43;;;21.10;28.70;;;;;;5051818;28;20537;-74
2023/06/14 07:25:14;;;;;;;11.90;4.53;;;21.10;27.30;;;;;;5050520;28;20886;-74
2023/06/14 07:27:59;;;;;;;6.80;4.93;;;21.20;26.80;;;;;;5050245;28;20470;-73
2023/06/14 07:30:46;;;;;;;6.73;4.87;;;21.20;26.90;;;;;;5051959;28;20477;-73
2023/06/14 07:33:31;;;;;;;5.80;4.53;;;21.30;26.60;;;;;;5054926;28;20606;-73
2023/06/14 07:36:17;;;;;;;5.43;4.53;;;21.30;27.20;;;;;;5053017;28;20443;-74
2023/06/14 07:39:04;;;;;;;6.27;4.47;;;21.40;26.20;;;;;;5050755;28;20461;-73
2023/06/14 07:41:49;;;;;;;7.70;4.90;;;21.50;25.20;;;;;;5052736;28;21058;-73
2023/06/14 07:44:35;;;;;;;9.93;4.63;;;21.50;26.20;;;;;;5052195;28;20470;-73
2023/06/14 07:47:22;;;;;;;8.17;4.50;;;21.60;26.50;;;;;;5050749;28;20838;-73
2023/06/14 07:50:08;;;;;;;7.47;4.97;;;21.70;24.80;;;;;;5053314;28;20455;-73
2023/06/14 07:52:54;;;;;;;5.17;4.60;;;21.70;24.40;;;;;;5051034;28;21011;-73
2023/06/14 07:55:39;;;;;;;8.10;4.70;;;21.70;24.20;;;;;;5052525;28;20479;-73
2023/06/14 07:58:25;;;;;;;10.13;4.80;;;21.70;26.40;;;;;;5052141;28;20442;-72
2023/06/14 08:01:11;;;;;;;8.60;4.77;;;21.70;25.70;;;;;;5052744;28;20451;-73
2023/06/14 08:03:57;;;;;;;9.43;5.33;;;21.80;24.80;;;;;;5050658;28;20468;-73
2023/06/14 08:06:44;;;;;;;10.33;5.03;;;21.80;25.00;;;;;;5049356;28;20455;-73
2023/06/14 08:09:29;;;;;;;11.43;5.17;;;21.90;24.80;;;;;;5052882;28;20459;-73
2023/06/14 08:12:15;;;;;;;12.53;4.70;;;21.90;24.70;;;;;;5051151;28;21122;-73
2023/06/14 08:15:01;;;;;;;8.00;4.90;;;22.00;26.40;;;;;;5051651;28;22920;-73
2023/06/14 08:17:47;;;;;;;8.03;5.27;;;22.00;26.10;;;;;;5058749;28;20467;-73
2023/06/14 08:20:35;;;;;;;6.67;5.00;;;22.10;25.70;;;;;;5059164;28;20475;-73
2023/06/14 08:23:21;;;;;;;6.37;4.70;;;22.20;24.80;;;;;;5052597;28;21010;-73
2023/06/14 08:26:06;;;;;;;8.27;4.70;;;22.30;26.40;;;;;;5054627;28;20552;-73
2023/06/14 08:28:51;;;;;;;10.07;4.73;;;22.40;25.60;;;;;;5053320;28;20585;-73
2023/06/14 08:31:37;;;;;;;9.20;5.17;;;22.40;26.00;;;;;;5054153;28;20886;-73
2023/06/14 08:34:23;;;;;;;11.23;5.50;;;22.50;24.30;;;;;;5056379;28;20454;-73
2023/06/14 08:37:10;;;;;;;12.20;5.10;;;22.50;25.60;;;;;;5049403;28;20459;-73
2023/06/14 08:39:56;;;;;;;7.40;5.00;;;22.60;24.10;;;;;;5054232;28;20586;-73
2023/06/14 08:42:42;;;;;;;12.80;5.17;;;22.60;23.50;;;;;;5052492;28;20454;-73
2023/06/14 08:45:27;;;;;;;9.07;4.90;;;22.60;24.10;;;;;;5052503;28;20520;-73
2023/06/14 08:48:17;;;;;;;6.30;4.57;;;22.70;23.20;;;;;;5053910;28;20525;-73
2023/06/14 08:51:03;;;;;;;7.30;4.87;;;22.70;22.30;;;;;;5052894;28;20458;-73
2023/06/14 08:53:57;;;;;;;6.17;4.37;;;22.70;22.10;;;;;;5053368;28;22542;-73
2023/06/14 08:56:43;;;;;;;7.10;4.53;;;22.80;21.80;;;;;;5050995;28;20451;-73
2023/06/14 08:59:31;;;;;;;9.90;4.70;;;22.70;22.50;;;;;;5053290;28;20936;-73
2023/06/14 09:02:17;;;;;;;5.57;4.10;;;22.80;21.30;;;;;;5051133;28;20471;-73
2023/06/14 09:05:03;;;;;;;7.73;4.20;;;22.80;20.10;;;;;;5052118;28;20471;-73
2023/06/14 09:07:50;;;;;;;7.70;4.30;;;22.90;19.50;;;;;;5052598;28;20523;-73
2023/06/14 09:10:37;;;;;;;10.33;4.70;;;22.90;19.60;;;;;;5054059;28;20576;-73
2023/06/14 09:13:22;;;;;;;6.53;4.30;;;22.80;20.60;;;;;;5051926;28;20476;-73
2023/06/14 09:16:08;;;;;;;5.63;3.97;;;22.90;21.70;;;;;;5053104;28;20439;-73
2023/06/14 09:18:55;;;;;;;6.80;3.87;;;23.00;18.80;;;;;;5051257;28;20893;-73
2023/06/14 09:21:41;;;;;;;6.77;3.93;;;23.10;20.00;;;;;;5051223;28;20448;-73
2023/06/14 09:24:27;;;;;;;4.40;3.47;;;23.20;18.20;;;;;;5051175;28;20470;-73
2023/06/14 09:27:17;;;;;;;6.10;4.30;;;23.20;17.60;;;;;;5053805;28;20587;-73
2023/06/14 09:30:04;;;;;;;5.83;3.83;;;23.20;19.20;;;;;;5052082;28;20546;-73
2023/06/14 09:32:50;;;;;;;5.83;3.50;;;23.20;17.60;;;;;;5052590;28;20451;-73
2023/06/14 09:35:36;;;;;;;5.70;3.43;;;23.10;17.50;;;;;;5051556;28;20802;-72
2023/06/14 09:38:21;;;;;;;11.53;4.30;;;23.20;18.50;;;;;;5053549;28;20802;-73
2023/06/14 09:41:07;;;;;;;4.57;3.60;;;23.20;18.10;;;;;;5051469;28;20443;-73
2023/06/14 09:43:57;;;;;;;5.03;3.70;;;23.30;17.70;;;;;;5050931;28;20459;-73
2023/06/14 09:46:42;;;;;;;7.20;4.33;;;23.40;19.00;;;;;;5052894;28;20446;-73
2023/06/14 09:49:27;;;;;;;5.07;4.00;;;23.50;19.30;;;;;;5050873;28;20473;-73
2023/06/14 09:52:16;;;;;;;9.83;4.00;;;23.60;17.90;;;;;;5053805;28;20900;-73
2023/06/14 09:55:08;;;;;;;6.20;3.63;;;23.60;17.90;;;;;;5052416;28;20595;-73
2023/06/14 09:57:55;;;;;;;6.07;3.70;;;23.60;16.90;;;;;;5051841;28;20831;-72
2023/06/14 10:00:43;;;;;;;4.60;3.23;;;23.50;17.80;;;;;;5053295;28;20522;-73
2023/06/14 10:03:30;;;;;;;4.80;3.23;;;23.30;16.80;;;;;;5053605;28;21017;-73
2023/06/14 10:06:16;;;;;;;5.67;3.60;;;23.20;15.50;;;;;;5052377;28;21510;-72
2023/06/14 10:09:05;;;;;;;4.27;3.37;;;23.10;15.90;;;;;;5051964;28;20628;-74
2023/06/14 10:11:51;;;;;;;4.50;3.60;;;23.20;16.50;;;;;;5050414;28;20447;-75
2023/06/14 10:14:37;;;;;;;4.70;3.90;;;23.30;17.20;;;;;;5048974;28;21940;-75
2023/06/14 10:17:32;;;;;;;9.90;3.87;;;23.50;17.80;;;;;;5056086;28;20826;-75
2023/06/14 10:20:27;;;;;;;8.90;4.47;;;23.80;18.80;;;;;;5053527;28;20622;-75
2023/06/14 10:23:17;;;;;;;11.40;3.90;;;24.00;19.10;;;;;;5051052;28;20608;-75
2023/06/14 10:26:03;;;;;;;7.87;4.20;;;24.20;16.80;;;;;;5049758;28;20815;-74
2023/06/14 10:28:58;;;;;;;5.50;3.60;;;24.20;18.40;;;;;;5054382;28;20484;-74
2023/06/14 10:31:45;;;;;;;4.97;3.90;;;24.30;16.80;;;;;;5051450;28;20449;-75
2023/06/14 10:34:32;;;;;;;7.90;3.90;;;24.20;17.00;;;;;;5052961;28;20513;-74
2023/06/14 10:37:17;;;;;;;8.80;3.80;;;24.20;17.90;;;;;;5050965;28;20451;-75
2023/06/14 10:40:05;;;;;;;4.50;3.83;;;24.30;18.50;;;;;;5052503;28;20479;-75
2023/06/14 10:42:52;;;;;;;6.80;3.83;;;24.30;17.30;;;;;;5048139;28;20456;-75
2023/06/14 10:45:58;;;;;;;6.67;4.30;;;24.20;18.40;;;;;;5052047;28;20444;-75
2023/06/14 10:48:44;;;;;;;5.77;4.40;;;24.20;18.40;;;;;;5051659;28;20521;-75
2023/06/14 10:51:45;;;;;;;7.50;3.90;;;24.30;18.20;;;;;;5050005;28;20451;-75
2023/06/14 10:54:30;;;;;;;5.87;3.47;;;24.50;17.80;;;;;;5052064;28;20554;-75
2023/06/14 10:57:16;;;;;;;6.80;3.80;;;24.70;18.80;;;;;;5053951;28;20446;-75
2023/06/14 11:00:11;;;;;;;9.33;4.40;;;24.80;18.00;;;;;;5050585;28;20816;-74
2023/06/14 11:03:37;;;;;;;4.77;4.23;;;24.90;15.60;;;;;;5049690;28;20459;-75
2023/06/14 11:06:28;;;;;;;4.57;3.67;;;24.80;15.00;;;;;;5050891;28;20447;-74
2023/06/14 11:09:53;;;;;;;6.90;4.03;;;24.50;15.70;;;;;;5054908;28;20490;-75
2023/06/14 11:12:42;;;;;;;6.20;4.10;;;24.50;16.00;;;;;;5025587;28;20483;-75
2023/06/14 11:15:30;;;;;;;6.53;3.93;;;24.50;16.90;;;;;;5053071;28;20467;-75
2023/06/14 11:18:17;;;;;;;5.23;4.47;;;24.30;16.90;;;;;;5055973;28;20467;-75
2023/06/14 11:21:03;;;;;;;5.93;3.93;;;24.00;17.50;;;;;;5050931;28;20489;-75
2023/06/14 11:23:53;;;;;;;9.70;4.77;;;24.00;17.60;;;;;;5050768;28;20459;-75
2023/06/14 11:26:40;;;;;;;5.63;4.53;;;23.90;17.80;;;;;;5051714;28;20529;-74
2023/06/14 11:29:26;;;;;;;9.43;4.37;;;23.80;16.40;;;;;;5050340;28;20518;-74
2023/06/14 11:32:13;;;;;;;6.80;4.67;;;23.60;17.00;;;;;;5052793;28;20443;-74
2023/06/14 11:34:59;;;;;;;6.13;4.10;;;23.50;18.40;;;;;;5051506;28;20467;-75
2023/06/14 11:37:45;;;;;;;5.50;3.90;;;23.70;17.30;;;;;;5050192;28;20486;-75
2023/06/14 11:40:30;;;;;;;5.07;4.10;;;24.00;15.90;;;;;;5052675;28;20432;-74
2023/06/14 11:43:17;;;;;;;7.13;3.67;;;24.10;17.90;;;;;;5061332;28;20512;-73
2023/06/14 11:46:03;;;;;;;3.93;3.23;;;24.30;17.50;;;;;;5050011;28;20840;-73
2023/06/14 11:48:48;;;;;;;9.00;3.27;;;24.50;15.10;;;;;;5051021;28;20526;-73
2023/06/14 11:51:35;;;;;;;5.40;3.60;;;24.60;14.80;;;;;;5049985;28;20450;-74
2023/06/14 11:54:20;;;;;;;5.30;3.30;;;24.60;15.00;;;;;;5048709;28;20510;-74
2023/06/14 11:57:07;;;;;;;5.57;3.70;;;24.50;14.30;;;;;;5048003;28;20826;-74
2023/06/14 11:59:56;;;;;;;7.50;4.10;;;24.40;13.80;;;;;;5049126;28;20444;-74
2023/06/14 12:02:41;;;;;;;7.33;4.10;;;24.30;16.00;;;;;;5047739;28;20551;-74
2023/06/14 12:05:28;;;;;;;6.13;3.80;;;24.50;14.80;;;;;;5049464;28;20471;-74
2023/06/14 12:08:17;;;;;;;10.03;3.40;;;24.80;14.00;;;;;;5047143;28;20486;-74
2023/06/14 12:11:04;;;;;;;5.83;3.67;;;25.10;13.80;;;;;;5050599;28;20452;-74
2023/06/14 12:13:50;;;;;;;6.97;4.40;;;25.30;13.50;;;;;;5050954;28;21012;-74
2023/06/14 12:16:39;;;;;;;4.67;3.70;;;25.50;13.40;;;;;;5055773;28;20489;-73
2023/06/14 12:19:27;;;;;;;5.07;4.00;;;25.50;14.00;;;;;;5051670;28;20446;-73
2023/06/14 12:22:13;;;;;;;8.20;4.27;;;25.80;12.80;;;;;;5049984;28;21231;-73
2023/06/14 12:24:58;;;;;;;8.13;3.63;;;25.90;14.00;;;;;;5053971;28;20468;-73
2023/06/14 12:27:44;;;;;;;6.20;3.87;;;26.00;12.30;;;;;;5052082;28;20878;-73
2023/06/14 12:30:30;;;;;;;6.70;3.93;;;26.10;13.40;;;;;;5056396;28;20475;-73
2023/06/14 12:33:16;;;;;;;10.43;3.00;;;26.10;13.30;;;;;;5050729;28;20496;-73
2023/06/14 12:36:04;;;;;;;5.47;4.00;;;25.90;11.90;;;;;;5047825;28;21355;-73
2023/06/14 12:38:53;;;;;;;5.23;3.83;;;25.60;13.20;;;;;;5051999;28;20570;-73
2023/06/14 12:41:41;;;;;;;15.83;4.43;;;25.30;14.20;;;;;;5052119;28;21058;-73
2023/06/14 12:44:26;;;;;;;5.70;3.80;;;25.00;14.70;;;;;;5051206;28;20484;-73
2023/06/14 12:47:12;;;;;;;6.20;4.33;;;24.90;12.90;;;;;;5048008;28;20598;-73
2023/06/14 12:49:59;;;;;;;6.00;4.40;;;24.70;14.10;;;;;;5048232;28;20544;-73
2023/06/14 12:52:45;;;;;;;7.03;3.80;;;24.70;13.70;;;;;;5049487;28;20961;-73
2023/06/14 12:55:30;;;;;;;5.73;3.30;;;24.90;14.90;;;;;;5047998;28;21767;-73
2023/06/14 12:58:16;;;;;;;5.90;3.90;;;25.10;13.60;;;;;;5049967;28;20800;-73
2023/06/14 13:01:02;;;;;;;6.30;3.80;;;25.40;14.00;;;;;;5046852;28;20760;-73
2023/06/14 13:03:49;;;;;;;5.07;4.23;;;25.70;12.40;;;;;;5050327;28;21244;-73
2023/06/14 13:06:36;;;;;;;6.70;4.00;;;25.80;13.20;;;;;;5050825;28;20455;-73
2023/06/14 13:09:22;;;;;;;4.60;3.90;;;25.80;14.10;;;;;;5055496;28;20597;-73
2023/06/14 13:12:08;;;;;;;6.73;4.60;;;26.00;14.90;;;;;;5065962;28;20462;-73
2023/06/14 13:14:54;;;;;;;6.17;4.50;;;26.30;13.20;;;;;;5053463;28;20461;-73
2023/06/14 13:17:40;;;;;;;5.50;3.97;;;26.60;13.70;;;;;;5054802;28;20457;-73
2023/06/14 13:20:25;;;;;;;6.30;4.17;;;26.80;11.90;;;;;;5053795;28;21098;-73
2023/06/14 13:23:12;;;;;;;8.10;4.20;;;26.60;11.00;;;;;;5051186;28;20599;-73
2023/06/14 13:25:58;;;;;;;5.73;4.73;;;26.30;12.90;;;;;;5051211;28;20483;-73
2023/06/14 13:28:43;;;;;;;6.80;4.00;;;25.90;12.30;;;;;;5052923;28;20447;-73
2023/06/14 13:31:29;;;;;;;6.00;4.17;;;25.50;12.00;;;;;;5051998;28;20439;-73
2023/06/14 13:34:15;;;;;;;7.10;4.53;;;25.20;13.70;;;;;;5059255;28;21090;-73
2023/06/14 13:37:00;;;;;;;6.90;3.80;;;25.00;13.60;;;;;;5061911;28;20492;-73
2023/06/14 13:39:47;;;;;;;5.80;3.83;;;24.80;14.10;;;;;;5054986;28;20511;-73
2023/06/14 13:42:33;;;;;;;17.47;5.87;;;24.80;14.00;;;;;;5052322;28;20804;-73
2023/06/14 13:45:18;;;;;;;4.97;4.20;;;25.30;13.30;;;;;;5050330;28;20468;-73
2023/06/14 13:48:05;;;;;;;5.40;4.03;;;25.60;12.80;;;;;;5052101;28;20508;-73
2023/06/14 13:50:50;;;;;;;26.87;7.30;;;25.70;12.60;;;;;;5050373;28;20609;-72
2023/06/14 13:53:36;;;;;;;16.73;5.60;;;25.80;12.10;;;;;;5053874;28;20489;-73
2023/06/14 13:56:24;;;;;;;5.20;3.83;;;25.70;13.70;;;;;;5051009;28;20600;-73
2023/06/14 13:59:10;;;;;;;7.43;4.40;;;25.70;12.80;;;;;;5052230;28;21461;-73
2023/06/14 14:01:56;;;;;;;6.00;4.27;;;25.70;12.20;;;;;;5051264;28;20591;-73
2023/06/14 14:04:42;;;;;;;6.57;3.80;;;25.50;12.80;;;;;;5052424;28;21112;-73
2023/06/14 14:07:29;;;;;;;5.50;3.80;;;25.30;13.10;;;;;;5050839;28;20445;-73
2023/06/14 14:10:14;;;;;;;5.57;4.20;;;25.10;13.40;;;;;;5053114;28;20511;-73
2023/06/14 14:13:01;;;;;;;6.30;4.50;;;25.10;14.00;;;;;;5052829;28;20958;-73
2023/06/14 14:15:46;;;;;;;5.57;4.50;;;25.40;14.40;;;;;;5051153;28;21006;-73
2023/06/14 14:18:32;;;;;;;6.40;4.40;;;25.70;13.90;;;;;;5062030;28;20458;-73
2023/06/14 14:21:18;;;;;;;6.40;4.00;;;26.10;12.30;;;;;;5053550;28;20606;-73
2023/06/14 14:24:03;;;;;;;8.83;4.60;;;26.30;12.40;;;;;;5051720;28;20475;-73
2023/06/14 14:26:49;;;;;;;15.60;10.40;;;26.60;12.10;;;;;;5051633;28;21108;-73